La Farge, Wisconsin
Current Conditions -  °F | °C
As of 6:54 PM on Saturday 20 Dec 2014 (Local Time) from KY51 Reporting Station
Overcast Overcast  
Wind Chill: 23°   Ceiling: 700
Heat Index: 29°   Visibility: 4mi
Dew Point: 29°   Wind: 6mph
Humidity: 100%   Direction: 140°SE
Pressure: 30.17"   Gusts: NA
Location:  43.57°N, 90.64°W
Report Text: KY51 210054Z AUTO 14005KT 4SM OVC007 M01/M01 A3017 RMK AO1 T10151015
Loading
Personal Weather Stations






























Interactive Weather Map New forecast layout! Learn more

10-Day Weather Forecast

Advertisements
Track Severe Weather on mobile